• Join FlightAware (Why Join?)
  • Login
  • US Flag 
09:10AM EDT


 

Airport Tracker/Info


-or-


 

Live Flight TrackerFlight Track Log ✈ KAP2826 ✈ 02-May-2013 ✈ KBOS - KACK

Flight Track Log - Related Links

Times and Time Zones

All times are in EDT time to prevent confusion due to time zone crossing. See the KAP2826 flight status page for this flight to view local times or setup timezone preferences in your user account.

Time Position Orientation Groundspeed Altitude Reporting Facility
EDT Latitude Longitude Course Direction KTS MPH feet Rate Location/Type
07:18PM 42.3500 -70.9833 114° Southeast 122 140 700  Level KA90
07:20PM 42.3333 -70.9333 114° Southeast 108 124 1,500 480 Climbing KA90
07:21PM 42.3000 -70.9167 160° South 111 128 2,000 420 Climbing KA90
07:22PM 42.2667 -70.8833 143° Southeast 125 144 2,400 420 Climbing KA90
07:23PM 42.2333 -70.8667 160° South 132 152 2,900 420 Climbing KA90
07:24PM 42.2000 -70.8333 143° Southeast 130 150 3,300 480 Climbing KA90
07:25PM 42.1833 -70.8167 143° Southeast 143 165 3,800 540 Climbing KA90
07:26PM 42.1500 -70.7833 143° Southeast 143 165 4,300 480 Climbing KA90
07:28PM 42.1100 -70.7505 116° Southeast  Level Estimated
07:35PM 42.1257 -70.5059 85° East  Level FlightAware Approximate
07:36PM 42.1279 -70.4709 85° East  Level FlightAware Approximate
07:37PM 42.1033 -70.4592 114° Southeast  Level Estimated
07:38PM 42.0965 -70.4254 105° East  Level FlightAware Approximate
07:39PM 42.0897 -70.3915 105° East  Level FlightAware Approximate
07:40PM 42.0828 -70.3577 105° East  Level FlightAware Approximate
07:41PM 42.0760 -70.3239 105° East  Level FlightAware Approximate
07:42PM 42.0691 -70.2901 105° East  Level FlightAware Approximate
07:43PM 42.0623 -70.2562 105° East  Level FlightAware Approximate
07:44PM 42.0554 -70.2225 105° East  Level FlightAware Approximate
07:45PM 42.0485 -70.1887 105° East  Level FlightAware Approximate
07:46PM 42.0416 -70.1549 105° East  Level FlightAware Approximate
07:47PM 42.0347 -70.1211 105° East  Level FlightAware Approximate
07:48PM 42.0087 -70.1190 180° South  Level Estimated
07:49PM 41.9830 -70.1136 171° South  Level FlightAware Approximate
07:50PM 41.9573 -70.1082 171° South  Level FlightAware Approximate
07:51PM 41.9316 -70.1028 171° South  Level FlightAware Approximate
07:52PM 41.9059 -70.0974 171° South  Level FlightAware Approximate
07:53PM 41.8801 -70.0920 171° South  Level FlightAware Approximate
07:54PM 41.8544 -70.0866 171° South  Level FlightAware Approximate
07:55PM 41.8287 -70.0812 171° South  Level FlightAware Approximate
07:56PM 41.8030 -70.0758 171° South  Level FlightAware Approximate
07:57PM 41.7773 -70.0704 171° South  Level FlightAware Approximate
07:58PM 41.7516 -70.0650 171° South  Level FlightAware Approximate